createdAt,value
2023-01-09T00:01:28.287Z,4.60
2023-01-09T00:03:56.584Z,4.60
2023-01-09T00:06:24.664Z,4.60
2023-01-09T00:08:52.719Z,4.60
2023-01-09T00:11:20.988Z,4.60
2023-01-09T00:13:48.949Z,4.60
2023-01-09T00:16:17.284Z,4.60
2023-01-09T00:18:46.712Z,4.50
2023-01-09T00:21:15.633Z,4.50
2023-01-09T00:23:43.632Z,4.40
2023-01-09T00:26:13.932Z,4.50
2023-01-09T00:28:42.270Z,4.50
2023-01-09T00:31:10.475Z,4.60
2023-01-09T00:33:42.394Z,4.60
2023-01-09T00:36:12.776Z,4.60
2023-01-09T00:38:41.364Z,4.60
2023-01-09T00:41:12.967Z,4.60
2023-01-09T00:43:45.316Z,4.70
2023-01-09T00:46:14.880Z,4.60
2023-01-09T00:48:44.883Z,4.60
2023-01-09T00:51:14.422Z,4.60
2023-01-09T00:53:44.166Z,4.60
2023-01-09T00:56:15.752Z,4.50
2023-01-09T00:58:43.964Z,4.50
2023-01-09T01:01:12.339Z,4.60
2023-01-09T01:03:40.601Z,4.60
2023-01-09T01:06:26.722Z,4.60
2023-01-09T01:08:56.888Z,4.60
2023-01-09T01:11:25.214Z,4.60
2023-01-09T01:13:54.011Z,4.60
2023-01-09T01:16:22.057Z,4.60
2023-01-09T01:18:50.555Z,4.50
2023-01-09T01:21:18.880Z,4.50
2023-01-09T01:23:46.999Z,4.50
2023-01-09T01:26:17.898Z,4.40
2023-01-09T01:28:45.953Z,4.30
2023-01-09T01:31:18.661Z,4.40
2023-01-09T01:33:46.710Z,4.40
2023-01-09T01:36:16.260Z,4.50
2023-01-09T01:38:44.770Z,4.50
2023-01-09T01:41:12.753Z,4.60
2023-01-09T01:43:52.957Z,4.50
2023-01-09T01:46:21.025Z,4.60
2023-01-09T01:48:51.674Z,4.50
2023-01-09T01:51:20.817Z,4.50
2023-01-09T01:53:53.817Z,4.50
2023-01-09T01:56:27.445Z,4.50
2023-01-09T01:59:00.299Z,4.50
2023-01-09T02:01:29.731Z,4.50
2023-01-09T02:03:59.744Z,4.40
2023-01-09T02:06:28.533Z,4.40
2023-01-09T02:08:57.158Z,4.40
2023-01-09T02:11:25.162Z,4.40
2023-01-09T02:13:53.888Z,4.40
2023-01-09T02:16:40.038Z,4.50
2023-01-09T02:19:20.765Z,4.40
2023-01-09T02:22:01.723Z,4.40
2023-01-09T02:24:58.795Z,4.50
2023-01-09T02:27:57.563Z,4.50
2023-01-09T02:30:35.825Z,4.60
2023-01-09T02:33:40.817Z,4.60
2023-01-09T02:36:23.773Z,4.60
2023-01-09T02:39:08.980Z,4.60
2023-01-09T02:41:41.845Z,4.60
2023-01-09T02:44:28.564Z,4.70
2023-01-09T02:47:07.245Z,4.60
2023-01-09T02:49:38.007Z,4.70
2023-01-09T02:52:22.050Z,4.60
2023-01-09T02:55:00.320Z,4.60
2023-01-09T02:57:38.077Z,4.60
2023-01-09T03:00:17.501Z,4.60
2023-01-09T03:02:50.440Z,4.60
2023-01-09T03:05:24.650Z,4.60
2023-01-09T03:08:00.368Z,4.60
2023-01-09T03:10:37.069Z,4.60
2023-01-09T03:13:06.627Z,4.60
2023-01-09T03:15:37.722Z,4.60
2023-01-09T03:18:09.951Z,4.60
2023-01-09T03:20:39.350Z,4.60
2023-01-09T03:23:08.734Z,4.60
2023-01-09T03:25:36.805Z,4.50
2023-01-09T03:28:07.422Z,4.50
2023-01-09T03:30:37.202Z,4.50
2023-01-09T03:33:06.527Z,4.50
2023-01-09T03:35:34.649Z,4.50
2023-01-09T03:38:02.630Z,4.50
2023-01-09T03:40:30.664Z,4.50
2023-01-09T03:42:58.747Z,4.50
2023-01-09T03:45:26.773Z,4.40
2023-01-09T03:47:54.865Z,4.40
2023-01-09T03:50:24.197Z,4.30
2023-01-09T03:52:52.338Z,4.30
2023-01-09T03:55:20.420Z,4.40
2023-01-09T03:57:48.450Z,4.50
2023-01-09T04:00:16.946Z,4.50
2023-01-09T04:02:45.053Z,4.60
2023-01-09T04:05:13.076Z,4.60
2023-01-09T04:07:42.447Z,4.60
2023-01-09T04:10:11.914Z,4.60
2023-01-09T04:12:40.009Z,4.60
2023-01-09T04:15:08.919Z,4.50
2023-01-09T04:17:37.075Z,4.50
2023-01-09T04:20:05.717Z,4.50
2023-01-09T04:22:33.674Z,4.40
2023-01-09T04:25:03.045Z,4.50
2023-01-09T04:27:31.321Z,4.50
2023-01-09T04:29:59.292Z,4.50
2023-01-09T04:32:27.699Z,4.50
2023-01-09T04:34:55.741Z,4.50
2023-01-09T04:37:24.980Z,4.60
2023-01-09T04:39:56.015Z,4.60
2023-01-09T04:42:25.501Z,4.60
2023-01-09T04:44:54.327Z,4.60
2023-01-09T04:47:23.772Z,4.60
2023-01-09T04:49:52.078Z,4.60
2023-01-09T04:52:20.130Z,4.60
2023-01-09T04:54:48.190Z,4.60
2023-01-09T04:57:16.194Z,4.60
2023-01-09T04:59:45.538Z,4.60
2023-01-09T05:02:13.869Z,4.60
2023-01-09T05:04:42.119Z,4.60
2023-01-09T05:07:10.168Z,4.40
2023-01-09T05:09:38.214Z,4.40
2023-01-09T05:12:06.868Z,4.40
2023-01-09T05:14:34.899Z,4.40
2023-01-09T05:17:04.384Z,4.40
2023-01-09T05:19:32.386Z,4.50
2023-01-09T05:22:00.349Z,4.60
2023-01-09T05:24:30.416Z,4.60
2023-01-09T05:26:58.534Z,4.60
2023-01-09T05:29:26.735Z,4.60
2023-01-09T05:31:54.729Z,4.60
2023-01-09T05:34:24.785Z,4.70
2023-01-09T05:36:53.043Z,4.70
2023-01-09T05:39:21.014Z,4.70
2023-01-09T05:41:48.978Z,4.70
2023-01-09T05:44:17.143Z,4.70
2023-01-09T05:46:45.170Z,4.70
2023-01-09T05:49:13.146Z,4.60
2023-01-09T05:51:42.514Z,4.70
2023-01-09T05:54:10.584Z,4.70
2023-01-09T05:56:38.581Z,4.70
2023-01-09T05:59:06.658Z,4.70
2023-01-09T06:01:34.792Z,4.70
2023-01-09T06:04:02.830Z,4.70
2023-01-09T06:06:30.821Z,4.70
2023-01-09T06:09:00.210Z,4.70
2023-01-09T06:11:28.210Z,4.70
2023-01-09T06:13:56.247Z,4.70
2023-01-09T06:16:24.253Z,4.70
2023-01-09T06:18:52.282Z,4.70
2023-01-09T06:21:20.322Z,4.70
2023-01-09T06:23:48.355Z,4.70
2023-01-09T06:26:17.727Z,4.70
2023-01-09T06:28:45.708Z,4.70
2023-01-09T06:31:14.068Z,4.70
2023-01-09T06:33:42.160Z,4.70
2023-01-09T06:36:10.346Z,4.70
2023-01-09T06:38:38.330Z,4.70
2023-01-09T06:41:06.565Z,4.70
2023-01-09T06:43:36.457Z,4.70
2023-01-09T06:46:05.624Z,4.70
2023-01-09T06:48:33.849Z,4.70
2023-01-09T06:51:02.054Z,4.70
2023-01-09T06:53:30.245Z,4.70
2023-01-09T06:55:58.202Z,4.70
2023-01-09T06:58:26.181Z,4.70
2023-01-09T07:00:56.342Z,4.70
2023-01-09T07:03:24.419Z,4.70
2023-01-09T07:05:52.744Z,4.70
2023-01-09T07:08:20.761Z,4.70
2023-01-09T07:10:48.756Z,4.50
2023-01-09T07:13:16.811Z,4.60
2023-01-09T07:15:44.851Z,4.60
2023-01-09T07:18:14.259Z,4.70
2023-01-09T07:20:42.628Z,4.70
2023-01-09T07:23:14.681Z,4.80
2023-01-09T07:25:43.896Z,4.80
2023-01-09T07:28:11.856Z,4.80
2023-01-09T07:30:39.826Z,4.80
2023-01-09T07:33:07.895Z,4.80
2023-01-09T07:35:37.394Z,4.80
2023-01-09T07:38:05.464Z,4.80
2023-01-09T07:40:33.459Z,4.80
2023-01-09T07:43:01.603Z,4.80
2023-01-09T07:45:30.046Z,4.80
2023-01-09T07:47:58.060Z,4.80
2023-01-09T07:50:26.331Z,4.80
2023-01-09T07:52:55.653Z,4.70
2023-01-09T07:55:23.698Z,4.70
2023-01-09T07:57:52.388Z,4.70
2023-01-09T08:00:22.034Z,4.80
2023-01-09T08:02:53.870Z,4.80
2023-01-09T08:05:22.656Z,4.90
2023-01-09T08:07:51.521Z,4.90
2023-01-09T08:10:21.387Z,4.70
2023-01-09T08:12:50.084Z,4.50
2023-01-09T08:15:18.312Z,4.70
2023-01-09T08:17:47.518Z,4.70
2023-01-09T08:20:17.260Z,4.70
2023-01-09T08:22:49.619Z,4.80
2023-01-09T08:25:20.769Z,4.60
2023-01-09T08:27:50.198Z,4.70
2023-01-09T08:30:19.478Z,4.80
2023-01-09T08:32:50.886Z,4.70
2023-01-09T08:35:19.073Z,4.70
2023-01-09T08:37:49.335Z,4.80
2023-01-09T08:40:18.346Z,4.80
2023-01-09T08:43:04.315Z,4.90
2023-01-09T08:45:51.576Z,5.00
2023-01-09T08:48:19.624Z,5.10
2023-01-09T08:50:47.760Z,5.20
2023-01-09T08:53:15.748Z,5.20
2023-01-09T08:55:44.287Z,5.20
2023-01-09T08:58:14.489Z,5.30
2023-01-09T09:00:43.906Z,5.20
2023-01-09T09:03:12.632Z,5.30
2023-01-09T09:05:40.604Z,5.30
2023-01-09T09:08:08.643Z,5.20
2023-01-09T09:10:36.848Z,5.20
2023-01-09T09:13:05.042Z,5.20
2023-01-09T09:15:34.343Z,5.20
2023-01-09T09:18:05.593Z,5.20
2023-01-09T09:20:35.346Z,5.20
2023-01-09T09:23:04.049Z,5.20
2023-01-09T09:25:32.483Z,5.10
2023-01-09T09:28:01.237Z,5.10
2023-01-09T09:30:29.701Z,5.10
2023-01-09T09:32:57.783Z,5.10
2023-01-09T09:35:28.540Z,5.10
2023-01-09T09:37:58.091Z,5.10
2023-01-09T09:40:45.828Z,5.20
2023-01-09T09:43:57.904Z,5.10
2023-01-09T09:46:38.108Z,5.10
2023-01-09T09:49:13.978Z,5.00
2023-01-09T09:51:57.557Z,5.00
2023-01-09T09:54:31.831Z,5.00
2023-01-09T09:57:03.296Z,4.90
2023-01-09T09:59:34.394Z,4.90
2023-01-09T10:02:06.548Z,4.90
2023-01-09T10:04:35.512Z,4.90
2023-01-09T10:07:09.657Z,4.90
2023-01-09T10:09:45.892Z,4.90
2023-01-09T10:12:28.227Z,4.90
2023-01-09T10:14:58.378Z,4.90
2023-01-09T10:17:56.800Z,4.90
2023-01-09T10:20:56.478Z,4.70
2023-01-09T10:23:46.138Z,4.80
2023-01-09T10:26:22.799Z,4.80
2023-01-09T10:29:29.576Z,4.90
2023-01-09T10:32:11.721Z,4.90
2023-01-09T10:34:54.097Z,4.90
2023-01-09T10:37:26.273Z,4.90
2023-01-09T10:40:00.493Z,4.90
2023-01-09T10:42:33.571Z,4.90
2023-01-09T10:45:07.726Z,4.90
2023-01-09T10:47:38.292Z,4.90
2023-01-09T10:50:21.630Z,4.80
2023-01-09T10:52:52.527Z,4.80
2023-01-09T10:55:32.215Z,4.80
2023-01-09T10:58:03.248Z,4.80
2023-01-09T11:00:31.266Z,4.90
2023-01-09T11:02:59.322Z,4.90
2023-01-09T11:05:32.665Z,4.90
2023-01-09T11:08:05.304Z,4.90
2023-01-09T11:10:48.970Z,5.00
2023-01-09T11:13:22.699Z,5.00
2023-01-09T11:16:02.039Z,5.00
2023-01-09T11:18:30.288Z,5.10
2023-01-09T11:21:13.059Z,5.10
2023-01-09T11:23:41.184Z,5.10
2023-01-09T11:26:24.456Z,5.10
2023-01-09T11:29:08.108Z,5.10
2023-01-09T11:31:36.432Z,5.10
2023-01-09T11:34:04.813Z,5.00
2023-01-09T11:36:33.238Z,5.00
2023-01-09T11:39:02.804Z,4.90
2023-01-09T11:41:35.546Z,5.10
2023-01-09T11:44:05.805Z,5.10
2023-01-09T11:46:39.561Z,5.20
2023-01-09T11:49:22.903Z,5.20
2023-01-09T11:52:14.893Z,5.20
2023-01-09T11:54:46.527Z,5.20
2023-01-09T11:57:16.378Z,5.20
2023-01-09T11:59:44.589Z,5.20
2023-01-09T12:02:50.467Z,5.30
2023-01-09T12:05:31.842Z,5.30
2023-01-09T12:08:21.933Z,5.30
2023-01-09T12:11:05.125Z,5.30
2023-01-09T12:13:50.327Z,5.30
2023-01-09T12:16:27.891Z,5.30
2023-01-09T12:19:23.248Z,5.30
2023-01-09T12:21:59.153Z,5.30
2023-01-09T12:24:41.119Z,5.30
2023-01-09T12:27:22.952Z,5.40
2023-01-09T12:30:27.345Z,5.40
2023-01-09T12:33:13.725Z,5.50
2023-01-09T12:35:47.126Z,5.40
2023-01-09T12:38:33.005Z,5.50
2023-01-09T12:41:20.051Z,5.30
2023-01-09T12:43:58.902Z,5.20
2023-01-09T12:46:34.771Z,5.10
2023-01-09T12:49:28.315Z,5.10
2023-01-09T12:52:02.755Z,5.00
2023-01-09T12:54:39.478Z,5.10
2023-01-09T12:57:14.899Z,5.10
2023-01-09T12:59:49.147Z,5.10
2023-01-09T13:02:32.422Z,5.10
2023-01-09T13:05:04.049Z,5.20
2023-01-09T13:07:39.096Z,5.30
2023-01-09T13:10:17.775Z,5.40
2023-01-09T13:12:48.276Z,5.40
2023-01-09T13:15:30.445Z,5.40
2023-01-09T13:18:07.354Z,5.30
2023-01-09T13:20:39.992Z,5.30
2023-01-09T13:23:10.363Z,5.20
2023-01-09T13:25:43.469Z,5.10
2023-01-09T13:28:18.846Z,5.10
2023-01-09T13:31:17.212Z,5.10
2023-01-09T13:33:53.007Z,5.10
2023-01-09T13:36:25.990Z,5.20
2023-01-09T13:38:55.816Z,5.30
2023-01-09T13:41:44.270Z,5.30
2023-01-09T13:44:26.094Z,5.30
2023-01-09T13:46:57.455Z,5.30
2023-01-09T13:50:06.420Z,5.30
2023-01-09T13:52:37.752Z,5.30
2023-01-09T13:55:26.174Z,5.30
2023-01-09T13:58:18.715Z,5.40
2023-01-09T14:00:58.838Z,5.30
2023-01-09T14:03:32.987Z,5.40
2023-01-09T14:06:18.584Z,5.40
2023-01-09T14:08:49.017Z,5.40
2023-01-09T14:11:29.352Z,5.30
2023-01-09T14:14:04.813Z,5.40
2023-01-09T14:16:33.620Z,5.30
2023-01-09T14:19:08.155Z,5.30
2023-01-09T14:21:50.922Z,5.40
2023-01-09T14:24:28.695Z,5.50
2023-01-09T14:26:58.595Z,5.50
2023-01-09T14:29:44.679Z,5.50
2023-01-09T14:32:46.929Z,5.60
2023-01-09T14:35:20.908Z,5.60
2023-01-09T14:38:02.788Z,5.60
2023-01-09T14:40:31.765Z,5.70
2023-01-09T14:43:09.040Z,5.70
2023-01-09T14:45:40.103Z,5.70
2023-01-09T14:48:13.164Z,5.50
2023-01-09T14:50:46.758Z,5.50
2023-01-09T14:53:19.674Z,5.40
2023-01-09T14:55:53.135Z,5.30
2023-01-09T14:58:24.001Z,5.30
2023-01-09T15:00:59.287Z,5.20
2023-01-09T15:03:33.052Z,5.20
2023-01-09T15:06:02.154Z,5.20
2023-01-09T15:08:32.207Z,5.20
2023-01-09T15:11:01.031Z,5.20
2023-01-09T15:13:33.295Z,5.30
2023-01-09T15:16:02.490Z,5.30
2023-01-09T15:18:35.571Z,5.40
2023-01-09T15:21:04.790Z,5.30
2023-01-09T15:23:34.258Z,5.20
2023-01-09T15:26:15.393Z,5.20
2023-01-09T15:28:44.721Z,5.20
2023-01-09T15:31:16.722Z,5.10
2023-01-09T15:33:47.265Z,5.10
2023-01-09T15:36:20.868Z,5.10
2023-01-09T15:38:51.518Z,5.10
2023-01-09T15:41:38.914Z,5.20
2023-01-09T15:44:13.377Z,5.20
2023-01-09T15:46:43.435Z,5.20
2023-01-09T15:49:13.901Z,5.20
2023-01-09T15:51:44.565Z,5.20
2023-01-09T15:54:16.576Z,5.20
2023-01-09T15:56:46.299Z,5.20
2023-01-09T15:59:27.036Z,5.20
2023-01-09T16:02:20.753Z,5.30
2023-01-09T16:04:50.049Z,5.30
2023-01-09T16:07:21.241Z,5.30
2023-01-09T16:09:52.803Z,5.30
2023-01-09T16:12:22.798Z,5.40
2023-01-09T16:14:54.493Z,5.30
2023-01-09T16:17:26.539Z,5.20
2023-01-09T16:19:56.079Z,5.10
2023-01-09T16:22:26.388Z,5.10
2023-01-09T16:24:57.496Z,5.10
2023-01-09T16:27:28.733Z,5.10
2023-01-09T16:29:59.335Z,5.10
2023-01-09T16:32:29.496Z,5.10
2023-01-09T16:34:59.472Z,5.00
2023-01-09T16:37:30.305Z,5.10
2023-01-09T16:40:26.400Z,5.10
2023-01-09T16:43:03.498Z,5.20
2023-01-09T16:45:34.276Z,5.30
2023-01-09T16:48:03.195Z,5.20
2023-01-09T16:50:31.249Z,5.10
2023-01-09T16:53:04.028Z,5.00
2023-01-09T16:55:33.469Z,5.00
2023-01-09T16:58:01.454Z,5.10
2023-01-09T17:00:29.558Z,5.10
2023-01-09T17:02:58.361Z,5.10
2023-01-09T17:05:26.422Z,5.20
2023-01-09T17:07:55.496Z,5.10
2023-01-09T17:10:23.949Z,5.10
2023-01-09T17:12:53.253Z,5.10
2023-01-09T17:15:21.278Z,5.10
2023-01-09T17:17:49.318Z,5.20
2023-01-09T17:20:19.270Z,5.10
2023-01-09T17:22:47.339Z,5.00
2023-01-09T17:25:33.900Z,5.00
2023-01-09T17:28:21.284Z,5.00
2023-01-09T17:30:49.343Z,5.00
2023-01-09T17:33:18.958Z,4.90
2023-01-09T17:35:47.154Z,4.90
2023-01-09T17:38:15.880Z,5.00
2023-01-09T17:40:44.759Z,5.10
2023-01-09T17:43:14.336Z,5.10
2023-01-09T17:45:43.496Z,5.20
2023-01-09T17:48:17.323Z,5.20
2023-01-09T17:50:45.917Z,5.30
2023-01-09T17:53:14.334Z,5.30
2023-01-09T17:55:44.581Z,5.10
2023-01-09T17:58:25.248Z,5.20
2023-01-09T18:00:53.675Z,5.10
2023-01-09T18:03:24.333Z,5.00
2023-01-09T18:05:52.434Z,4.90
2023-01-09T18:08:20.417Z,4.90
2023-01-09T18:10:50.651Z,5.00
2023-01-09T18:13:20.080Z,4.90
2023-01-09T18:15:48.238Z,4.90
2023-01-09T18:18:17.204Z,4.90
2023-01-09T18:20:46.434Z,4.90
2023-01-09T18:23:15.049Z,4.90
2023-01-09T18:25:43.767Z,4.90
2023-01-09T18:28:15.184Z,5.00
2023-01-09T18:30:45.599Z,5.00
2023-01-09T18:33:14.495Z,5.10
2023-01-09T18:35:42.630Z,5.00
2023-01-09T18:38:11.045Z,4.90
2023-01-09T18:40:39.381Z,4.80
2023-01-09T18:43:07.955Z,4.80
2023-01-09T18:45:37.754Z,4.80
2023-01-09T18:48:07.836Z,4.90
2023-01-09T18:50:35.837Z,5.00
2023-01-09T18:53:03.871Z,4.90
2023-01-09T18:55:31.820Z,4.90
2023-01-09T18:57:59.837Z,5.00
2023-01-09T19:00:27.867Z,5.10
2023-01-09T19:02:55.979Z,5.20
2023-01-09T19:05:26.134Z,5.20
2023-01-09T19:07:54.186Z,5.30
2023-01-09T19:10:22.171Z,5.30
2023-01-09T19:12:50.183Z,5.30
2023-01-09T19:15:18.266Z,5.30
2023-01-09T19:17:46.918Z,5.30
2023-01-09T19:20:15.151Z,5.20
2023-01-09T19:22:44.604Z,5.20
2023-01-09T19:25:12.925Z,5.30
2023-01-09T19:27:43.035Z,5.30
2023-01-09T19:30:12.796Z,5.30
2023-01-09T19:32:41.336Z,5.30
2023-01-09T19:35:10.066Z,5.30
2023-01-09T19:37:40.046Z,5.30
2023-01-09T19:40:10.970Z,5.30
2023-01-09T19:42:38.981Z,5.20
2023-01-09T19:45:08.254Z,5.30
2023-01-09T19:47:36.834Z,5.30
2023-01-09T19:50:08.325Z,5.30
2023-01-09T19:52:37.620Z,5.30
2023-01-09T19:55:06.059Z,5.30
2023-01-09T19:57:35.660Z,5.30
2023-01-09T20:00:03.725Z,5.30
2023-01-09T20:02:31.687Z,5.20
2023-01-09T20:04:59.896Z,5.20
2023-01-09T20:07:27.871Z,5.30
2023-01-09T20:09:56.145Z,5.30
2023-01-09T20:12:24.143Z,5.30
2023-01-09T20:14:53.483Z,5.30
2023-01-09T20:17:21.442Z,5.30
2023-01-09T20:19:49.468Z,5.20
2023-01-09T20:22:17.499Z,5.10
2023-01-09T20:24:45.559Z,5.20
2023-01-09T20:27:13.573Z,5.20
2023-01-09T20:29:41.537Z,5.20
2023-01-09T20:32:10.867Z,5.20
2023-01-09T20:34:38.884Z,5.10
2023-01-09T20:37:06.920Z,4.90
2023-01-09T20:39:36.135Z,5.00
2023-01-09T20:42:04.335Z,5.10
2023-01-09T20:44:32.386Z,5.00
2023-01-09T20:47:00.399Z,5.00
2023-01-09T20:49:29.722Z,5.00
2023-01-09T20:51:57.765Z,5.10
2023-01-09T20:54:26.005Z,5.20
2023-01-09T20:56:54.045Z,5.20
2023-01-09T20:59:22.337Z,5.10
2023-01-09T21:01:50.680Z,5.10
2023-01-09T21:04:19.128Z,5.10
2023-01-09T21:06:50.259Z,5.10
2023-01-09T21:09:18.996Z,5.10
2023-01-09T21:11:47.024Z,5.10
2023-01-09T21:14:17.182Z,5.20
2023-01-09T21:16:53.707Z,5.00
2023-01-09T21:19:40.506Z,4.80
2023-01-09T21:22:09.811Z,4.80
2023-01-09T21:24:39.965Z,4.90
2023-01-09T21:27:14.099Z,5.00
2023-01-09T21:29:43.396Z,5.00
2023-01-09T21:32:11.584Z,5.00
2023-01-09T21:34:45.255Z,5.00
2023-01-09T21:37:16.667Z,4.90
2023-01-09T21:39:44.714Z,4.90
2023-01-09T21:42:29.988Z,4.90
2023-01-09T21:45:15.761Z,4.90
2023-01-09T21:47:43.767Z,4.80
2023-01-09T21:50:12.281Z,4.70
2023-01-09T21:52:41.618Z,4.60
2023-01-09T21:55:10.529Z,4.60
2023-01-09T21:57:38.558Z,4.70
2023-01-09T22:00:07.977Z,4.80
2023-01-09T22:02:36.774Z,4.70
2023-01-09T22:05:05.420Z,4.70
2023-01-09T22:07:33.868Z,4.60
2023-01-09T22:10:03.329Z,4.60
2023-01-09T22:12:31.336Z,4.60
2023-01-09T22:14:59.367Z,4.70
2023-01-09T22:17:28.591Z,4.60
2023-01-09T22:19:58.045Z,4.60
2023-01-09T22:22:26.093Z,4.70
2023-01-09T22:24:54.271Z,4.60
2023-01-09T22:27:23.726Z,4.60
2023-01-09T22:29:51.739Z,4.70
2023-01-09T22:32:19.716Z,4.60
2023-01-09T22:34:47.674Z,4.50
2023-01-09T22:37:15.737Z,4.50
2023-01-09T22:39:43.707Z,4.50
2023-01-09T22:42:11.971Z,4.60
2023-01-09T22:44:41.378Z,4.50
2023-01-09T22:47:09.324Z,4.50
2023-01-09T22:49:51.722Z,4.50
2023-01-09T22:52:21.057Z,4.50
2023-01-09T22:54:49.220Z,4.50
2023-01-09T22:57:17.657Z,4.50
2023-01-09T22:59:47.047Z,4.40
2023-01-09T23:02:15.123Z,4.20
2023-01-09T23:04:43.326Z,4.20
2023-01-09T23:07:11.275Z,4.30
2023-01-09T23:09:39.311Z,4.40
2023-01-09T23:12:07.848Z,4.20
2023-01-09T23:14:37.974Z,4.20
2023-01-09T23:17:09.696Z,4.30
2023-01-09T23:19:37.945Z,4.40
2023-01-09T23:22:06.411Z,4.40
2023-01-09T23:24:35.086Z,4.40
2023-01-09T23:27:03.079Z,4.40
2023-01-09T23:29:31.121Z,4.30
2023-01-09T23:31:59.127Z,4.30
2023-01-09T23:34:28.633Z,4.30
2023-01-09T23:36:57.576Z,4.40
2023-01-09T23:39:25.903Z,4.30
2023-01-09T23:42:11.125Z,4.30
2023-01-09T23:44:39.121Z,4.30
2023-01-09T23:47:07.335Z,4.20
2023-01-09T23:49:36.888Z,4.10
2023-01-09T23:52:06.578Z,4.20
2023-01-09T23:54:34.659Z,4.30
2023-01-09T23:57:02.647Z,4.30
2023-01-09T23:59:30.729Z,4.30
